sensor_id;sensor_type;location;lat;lon;timestamp;P1;durP1;ratioP1;P2;durP2;ratioP2
35847;SDS011;22332;51.954;20.118;2024-02-28T00:00:08;72.10;;;44.30;;
35847;SDS011;22332;51.954;20.118;2024-02-28T00:03:35;62.60;;;39.30;;
35847;SDS011;22332;51.954;20.118;2024-02-28T00:06:41;60.80;;;40.40;;
35847;SDS011;22332;51.954;20.118;2024-02-28T00:09:47;59.40;;;39.80;;
35847;SDS011;22332;51.954;20.118;2024-02-28T00:12:52;60.70;;;39.70;;
35847;SDS011;22332;51.954;20.118;2024-02-28T00:15:58;69.30;;;44.10;;
35847;SDS011;22332;51.954;20.118;2024-02-28T00:19:03;65.70;;;40.30;;
35847;SDS011;22332;51.954;20.118;2024-02-28T00:22:09;68.80;;;41.60;;
35847;SDS011;22332;51.954;20.118;2024-02-28T00:25:15;65.90;;;43.20;;
35847;SDS011;22332;51.954;20.118;2024-02-28T00:28:20;60.80;;;39.80;;
35847;SDS011;22332;51.954;20.118;2024-02-28T00:31:26;63.80;;;41.90;;
35847;SDS011;22332;51.954;20.118;2024-02-28T00:34:32;64.40;;;41.40;;
35847;SDS011;22332;51.954;20.118;2024-02-28T00:37:38;58.30;;;37.30;;
35847;SDS011;22332;51.954;20.118;2024-02-28T00:40:43;59.00;;;37.10;;
35847;SDS011;22332;51.954;20.118;2024-02-28T00:43:49;57.60;;;38.20;;
35847;SDS011;22332;51.954;20.118;2024-02-28T00:46:54;75.30;;;47.10;;
35847;SDS011;22332;51.954;20.118;2024-02-28T00:50:00;71.80;;;46.10;;
35847;SDS011;22332;51.954;20.118;2024-02-28T00:53:06;76.80;;;47.30;;
35847;SDS011;22332;51.954;20.118;2024-02-28T00:56:12;66.60;;;43.80;;
35847;SDS011;22332;51.954;20.118;2024-02-28T00:59:18;55.10;;;35.50;;
35847;SDS011;22332;51.954;20.118;2024-02-28T01:02:23;49.10;;;31.50;;
35847;SDS011;22332;51.954;20.118;2024-02-28T01:05:32;56.90;;;39.10;;
35847;SDS011;22332;51.954;20.118;2024-02-28T01:08:38;55.20;;;37.00;;
35847;SDS011;22332;51.954;20.118;2024-02-28T01:11:44;63.60;;;40.60;;
35847;SDS011;22332;51.954;20.118;2024-02-28T01:14:49;57.10;;;38.20;;
35847;SDS011;22332;51.954;20.118;2024-02-28T01:17:55;56.70;;;38.20;;
35847;SDS011;22332;51.954;20.118;2024-02-28T01:21:01;63.50;;;41.30;;
35847;SDS011;22332;51.954;20.118;2024-02-28T01:24:07;61.70;;;38.50;;
35847;SDS011;22332;51.954;20.118;2024-02-28T01:27:12;55.70;;;37.10;;
35847;SDS011;22332;51.954;20.118;2024-02-28T01:30:18;67.20;;;42.20;;
35847;SDS011;22332;51.954;20.118;2024-02-28T01:33:24;69.70;;;45.30;;
35847;SDS011;22332;51.954;20.118;2024-02-28T01:36:29;68.60;;;43.80;;
35847;SDS011;22332;51.954;20.118;2024-02-28T01:39:35;62.50;;;39.50;;
35847;SDS011;22332;51.954;20.118;2024-02-28T01:42:40;59.10;;;37.40;;
35847;SDS011;22332;51.954;20.118;2024-02-28T01:45:46;61.60;;;41.00;;
35847;SDS011;22332;51.954;20.118;2024-02-28T01:48:52;62.20;;;40.00;;
35847;SDS011;22332;51.954;20.118;2024-02-28T01:51:58;62.10;;;41.00;;
35847;SDS011;22332;51.954;20.118;2024-02-28T01:55:04;68.40;;;44.30;;
35847;SDS011;22332;51.954;20.118;2024-02-28T01:58:12;62.10;;;39.10;;
35847;SDS011;22332;51.954;20.118;2024-02-28T02:01:17;56.60;;;35.80;;
35847;SDS011;22332;51.954;20.118;2024-02-28T02:04:27;62.40;;;40.50;;
35847;SDS011;22332;51.954;20.118;2024-02-28T02:07:32;59.30;;;39.80;;
35847;SDS011;22332;51.954;20.118;2024-02-28T02:10:38;62.00;;;42.10;;
35847;SDS011;22332;51.954;20.118;2024-02-28T02:13:51;67.40;;;43.30;;
35847;SDS011;22332;51.954;20.118;2024-02-28T02:20:01;62.30;;;37.60;;
35847;SDS011;22332;51.954;20.118;2024-02-28T02:23:09;61.40;;;41.40;;
35847;SDS011;22332;51.954;20.118;2024-02-28T02:26:15;54.80;;;37.70;;
35847;SDS011;22332;51.954;20.118;2024-02-28T02:29:21;56.60;;;39.80;;
35847;SDS011;22332;51.954;20.118;2024-02-28T02:32:26;61.80;;;40.50;;
35847;SDS011;22332;51.954;20.118;2024-02-28T02:35:32;58.40;;;35.60;;
35847;SDS011;22332;51.954;20.118;2024-02-28T02:38:38;57.50;;;36.20;;
35847;SDS011;22332;51.954;20.118;2024-02-28T02:41:43;53.40;;;36.10;;
35847;SDS011;22332;51.954;20.118;2024-02-28T02:44:50;60.70;;;39.90;;
35847;SDS011;22332;51.954;20.118;2024-02-28T02:47:55;59.90;;;39.40;;
35847;SDS011;22332;51.954;20.118;2024-02-28T02:51:01;58.80;;;39.40;;
35847;SDS011;22332;51.954;20.118;2024-02-28T02:54:07;54.90;;;37.50;;
35847;SDS011;22332;51.954;20.118;2024-02-28T02:57:12;49.30;;;33.10;;
35847;SDS011;22332;51.954;20.118;2024-02-28T03:00:18;51.70;;;32.80;;
35847;SDS011;22332;51.954;20.118;2024-02-28T03:03:24;55.10;;;37.40;;
35847;SDS011;22332;51.954;20.118;2024-02-28T03:06:30;54.70;;;36.10;;
35847;SDS011;22332;51.954;20.118;2024-02-28T03:09:36;56.50;;;36.90;;
35847;SDS011;22332;51.954;20.118;2024-02-28T03:12:41;51.70;;;35.90;;
35847;SDS011;22332;51.954;20.118;2024-02-28T03:15:47;51.40;;;36.00;;
35847;SDS011;22332;51.954;20.118;2024-02-28T03:18:53;49.20;;;33.20;;
35847;SDS011;22332;51.954;20.118;2024-02-28T03:21:59;50.80;;;33.40;;
35847;SDS011;22332;51.954;20.118;2024-02-28T03:25:06;52.80;;;36.50;;
35847;SDS011;22332;51.954;20.118;2024-02-28T03:28:13;52.90;;;35.50;;
35847;SDS011;22332;51.954;20.118;2024-02-28T03:31:18;55.30;;;35.60;;
35847;SDS011;22332;51.954;20.118;2024-02-28T03:34:24;49.20;;;34.40;;
35847;SDS011;22332;51.954;20.118;2024-02-28T03:37:30;56.70;;;38.00;;
35847;SDS011;22332;51.954;20.118;2024-02-28T03:40:35;56.10;;;38.10;;
35847;SDS011;22332;51.954;20.118;2024-02-28T03:43:41;56.30;;;36.90;;
35847;SDS011;22332;51.954;20.118;2024-02-28T03:46:46;58.40;;;38.40;;
35847;SDS011;22332;51.954;20.118;2024-02-28T03:49:52;53.00;;;37.50;;
35847;SDS011;22332;51.954;20.118;2024-02-28T03:53:00;56.60;;;38.80;;
35847;SDS011;22332;51.954;20.118;2024-02-28T03:56:06;53.30;;;36.40;;
35847;SDS011;22332;51.954;20.118;2024-02-28T03:59:11;53.60;;;35.20;;
35847;SDS011;22332;51.954;20.118;2024-02-28T04:02:17;50.30;;;32.90;;
35847;SDS011;22332;51.954;20.118;2024-02-28T04:05:22;49.10;;;33.90;;
35847;SDS011;22332;51.954;20.118;2024-02-28T04:08:28;48.80;;;34.20;;
35847;SDS011;22332;51.954;20.118;2024-02-28T04:11:34;52.30;;;35.80;;
35847;SDS011;22332;51.954;20.118;2024-02-28T04:14:40;52.80;;;37.50;;
35847;SDS011;22332;51.954;20.118;2024-02-28T04:17:46;53.30;;;36.90;;
35847;SDS011;22332;51.954;20.118;2024-02-28T04:20:51;47.20;;;32.60;;
35847;SDS011;22332;51.954;20.118;2024-02-28T04:23:57;47.60;;;33.30;;
35847;SDS011;22332;51.954;20.118;2024-02-28T04:27:03;49.00;;;34.10;;
35847;SDS011;22332;51.954;20.118;2024-02-28T04:30:13;49.50;;;34.30;;
35847;SDS011;22332;51.954;20.118;2024-02-28T04:33:18;53.60;;;36.30;;
35847;SDS011;22332;51.954;20.118;2024-02-28T04:36:24;51.50;;;35.20;;
35847;SDS011;22332;51.954;20.118;2024-02-28T04:39:29;59.70;;;39.60;;
35847;SDS011;22332;51.954;20.118;2024-02-28T04:42:35;47.70;;;32.70;;
35847;SDS011;22332;51.954;20.118;2024-02-28T04:45:40;46.70;;;31.80;;
35847;SDS011;22332;51.954;20.118;2024-02-28T04:48:49;76.40;;;45.60;;
35847;SDS011;22332;51.954;20.118;2024-02-28T04:51:54;79.50;;;47.40;;
35847;SDS011;22332;51.954;20.118;2024-02-28T04:55:01;76.60;;;46.90;;
35847;SDS011;22332;51.954;20.118;2024-02-28T04:58:07;61.20;;;40.90;;
35847;SDS011;22332;51.954;20.118;2024-02-28T05:01:13;54.30;;;35.20;;
35847;SDS011;22332;51.954;20.118;2024-02-28T05:04:19;51.90;;;33.60;;
35847;SDS011;22332;51.954;20.118;2024-02-28T05:07:24;46.00;;;31.90;;
35847;SDS011;22332;51.954;20.118;2024-02-28T05:10:30;47.20;;;33.40;;
35847;SDS011;22332;51.954;20.118;2024-02-28T05:17:31;48.90;;;34.90;;
35847;SDS011;22332;51.954;20.118;2024-02-28T05:20:41;54.00;;;36.80;;
35847;SDS011;22332;51.954;20.118;2024-02-28T05:23:47;47.40;;;31.40;;
35847;SDS011;22332;51.954;20.118;2024-02-28T05:26:52;48.10;;;31.00;;
35847;SDS011;22332;51.954;20.118;2024-02-28T05:29:58;49.40;;;33.70;;
35847;SDS011;22332;51.954;20.118;2024-02-28T05:33:08;47.60;;;32.10;;
35847;SDS011;22332;51.954;20.118;2024-02-28T05:36:14;49.80;;;35.00;;
35847;SDS011;22332;51.954;20.118;2024-02-28T05:39:20;52.70;;;35.40;;
35847;SDS011;22332;51.954;20.118;2024-02-28T05:42:25;51.80;;;31.80;;
35847;SDS011;22332;51.954;20.118;2024-02-28T05:45:31;47.90;;;31.30;;
35847;SDS011;22332;51.954;20.118;2024-02-28T05:48:37;51.70;;;34.90;;
35847;SDS011;22332;51.954;20.118;2024-02-28T05:51:44;48.30;;;32.20;;
35847;SDS011;22332;51.954;20.118;2024-02-28T05:54:50;53.20;;;35.70;;
35847;SDS011;22332;51.954;20.118;2024-02-28T05:57:56;51.10;;;35.20;;
35847;SDS011;22332;51.954;20.118;2024-02-28T06:01:01;53.00;;;34.10;;
35847;SDS011;22332;51.954;20.118;2024-02-28T06:04:07;56.10;;;37.50;;
35847;SDS011;22332;51.954;20.118;2024-02-28T06:07:13;57.40;;;37.70;;
35847;SDS011;22332;51.954;20.118;2024-02-28T06:10:18;62.00;;;42.10;;
35847;SDS011;22332;51.954;20.118;2024-02-28T06:13:24;54.30;;;37.80;;
35847;SDS011;22332;51.954;20.118;2024-02-28T06:16:30;56.50;;;38.20;;
35847;SDS011;22332;51.954;20.118;2024-02-28T06:19:36;49.30;;;33.70;;
35847;SDS011;22332;51.954;20.118;2024-02-28T06:22:42;49.00;;;32.10;;
35847;SDS011;22332;51.954;20.118;2024-02-28T06:25:47;49.90;;;32.70;;
35847;SDS011;22332;51.954;20.118;2024-02-28T06:28:53;50.80;;;35.30;;
35847;SDS011;22332;51.954;20.118;2024-02-28T06:32:04;56.90;;;38.00;;
35847;SDS011;22332;51.954;20.118;2024-02-28T06:35:10;54.50;;;37.90;;
35847;SDS011;22332;51.954;20.118;2024-02-28T06:38:15;52.20;;;35.00;;
35847;SDS011;22332;51.954;20.118;2024-02-28T06:41:21;47.40;;;32.80;;
35847;SDS011;22332;51.954;20.118;2024-02-28T06:44:27;50.20;;;32.40;;
35847;SDS011;22332;51.954;20.118;2024-02-28T06:47:32;46.70;;;32.20;;
35847;SDS011;22332;51.954;20.118;2024-02-28T06:50:39;52.60;;;37.00;;
35847;SDS011;22332;51.954;20.118;2024-02-28T06:53:44;50.30;;;34.30;;
35847;SDS011;22332;51.954;20.118;2024-02-28T06:56:50;51.30;;;35.70;;
35847;SDS011;22332;51.954;20.118;2024-02-28T06:59:56;47.00;;;33.10;;
35847;SDS011;22332;51.954;20.118;2024-02-28T07:03:02;46.50;;;30.80;;
35847;SDS011;22332;51.954;20.118;2024-02-28T07:06:08;46.50;;;32.50;;
35847;SDS011;22332;51.954;20.118;2024-02-28T07:09:15;47.40;;;32.60;;
35847;SDS011;22332;51.954;20.118;2024-02-28T07:12:21;49.40;;;34.70;;
35847;SDS011;22332;51.954;20.118;2024-02-28T07:15:27;47.50;;;33.80;;
35847;SDS011;22332;51.954;20.118;2024-02-28T07:18:33;51.90;;;35.20;;
35847;SDS011;22332;51.954;20.118;2024-02-28T07:21:38;45.40;;;30.90;;
35847;SDS011;22332;51.954;20.118;2024-02-28T07:24:44;45.00;;;32.30;;
35847;SDS011;22332;51.954;20.118;2024-02-28T07:27:50;50.70;;;36.00;;
35847;SDS011;22332;51.954;20.118;2024-02-28T07:30:55;54.70;;;36.70;;
35847;SDS011;22332;51.954;20.118;2024-02-28T07:34:01;55.10;;;37.10;;
35847;SDS011;22332;51.954;20.118;2024-02-28T07:37:08;54.30;;;36.00;;
35847;SDS011;22332;51.954;20.118;2024-02-28T07:40:15;66.50;;;43.90;;
35847;SDS011;22332;51.954;20.118;2024-02-28T07:43:21;51.50;;;34.70;;
35847;SDS011;22332;51.954;20.118;2024-02-28T07:46:26;47.50;;;33.60;;
35847;SDS011;22332;51.954;20.118;2024-02-28T07:49:32;53.00;;;38.10;;
35847;SDS011;22332;51.954;20.118;2024-02-28T07:52:38;53.00;;;34.70;;
35847;SDS011;22332;51.954;20.118;2024-02-28T07:55:43;44.10;;;31.50;;
35847;SDS011;22332;51.954;20.118;2024-02-28T07:58:49;45.30;;;31.20;;
35847;SDS011;22332;51.954;20.118;2024-02-28T08:01:55;53.80;;;36.80;;
35847;SDS011;22332;51.954;20.118;2024-02-28T08:05:00;51.50;;;34.60;;
35847;SDS011;22332;51.954;20.118;2024-02-28T08:08:06;52.10;;;38.00;;
35847;SDS011;22332;51.954;20.118;2024-02-28T08:11:12;58.30;;;41.60;;
35847;SDS011;22332;51.954;20.118;2024-02-28T08:14:18;49.50;;;35.20;;
35847;SDS011;22332;51.954;20.118;2024-02-28T08:17:24;88.90;;;63.40;;
35847;SDS011;22332;51.954;20.118;2024-02-28T08:20:29;71.30;;;48.80;;
35847;SDS011;22332;51.954;20.118;2024-02-28T08:23:35;54.10;;;37.10;;
35847;SDS011;22332;51.954;20.118;2024-02-28T08:26:41;57.80;;;39.40;;
35847;SDS011;22332;51.954;20.118;2024-02-28T08:29:47;49.10;;;34.30;;
35847;SDS011;22332;51.954;20.118;2024-02-28T08:32:52;46.70;;;33.50;;
35847;SDS011;22332;51.954;20.118;2024-02-28T08:35:58;49.80;;;34.50;;
35847;SDS011;22332;51.954;20.118;2024-02-28T08:39:03;47.00;;;32.40;;
35847;SDS011;22332;51.954;20.118;2024-02-28T08:42:12;47.70;;;32.30;;
35847;SDS011;22332;51.954;20.118;2024-02-28T08:45:17;49.80;;;34.60;;
35847;SDS011;22332;51.954;20.118;2024-02-28T08:48:23;48.00;;;34.60;;
35847;SDS011;22332;51.954;20.118;2024-02-28T08:51:29;52.80;;;35.60;;
35847;SDS011;22332;51.954;20.118;2024-02-28T08:54:34;58.00;;;42.60;;
35847;SDS011;22332;51.954;20.118;2024-02-28T08:57:40;52.50;;;37.10;;
35847;SDS011;22332;51.954;20.118;2024-02-28T09:00:48;53.50;;;38.10;;
35847;SDS011;22332;51.954;20.118;2024-02-28T09:03:54;54.70;;;40.00;;
35847;SDS011;22332;51.954;20.118;2024-02-28T09:06:59;61.10;;;43.40;;
35847;SDS011;22332;51.954;20.118;2024-02-28T09:10:06;54.20;;;37.00;;
35847;SDS011;22332;51.954;20.118;2024-02-28T09:13:12;58.40;;;40.90;;
35847;SDS011;22332;51.954;20.118;2024-02-28T09:16:17;58.20;;;40.70;;
35847;SDS011;22332;51.954;20.118;2024-02-28T09:19:23;59.00;;;41.90;;
35847;SDS011;22332;51.954;20.118;2024-02-28T09:22:29;65.80;;;46.60;;
35847;SDS011;22332;51.954;20.118;2024-02-28T09:25:34;55.10;;;36.90;;
35847;SDS011;22332;51.954;20.118;2024-02-28T09:28:40;52.40;;;36.80;;
35847;SDS011;22332;51.954;20.118;2024-02-28T09:31:46;56.90;;;38.80;;
35847;SDS011;22332;51.954;20.118;2024-02-28T09:34:51;52.70;;;36.20;;
35847;SDS011;22332;51.954;20.118;2024-02-28T09:37:57;78.30;;;59.40;;
35847;SDS011;22332;51.954;20.118;2024-02-28T09:41:03;61.80;;;44.20;;
35847;SDS011;22332;51.954;20.118;2024-02-28T09:44:08;60.50;;;41.30;;
35847;SDS011;22332;51.954;20.118;2024-02-28T09:47:15;60.00;;;41.60;;
35847;SDS011;22332;51.954;20.118;2024-02-28T09:50:21;106.70;;;79.70;;
35847;SDS011;22332;51.954;20.118;2024-02-28T09:53:27;66.60;;;48.20;;
35847;SDS011;22332;51.954;20.118;2024-02-28T09:56:33;53.00;;;38.20;;
35847;SDS011;22332;51.954;20.118;2024-02-28T09:59:39;55.70;;;38.20;;
35847;SDS011;22332;51.954;20.118;2024-02-28T10:02:45;57.80;;;41.10;;
35847;SDS011;22332;51.954;20.118;2024-02-28T10:05:53;50.00;;;36.10;;
35847;SDS011;22332;51.954;20.118;2024-02-28T10:08:58;49.70;;;33.60;;
35847;SDS011;22332;51.954;20.118;2024-02-28T10:12:04;53.30;;;34.90;;
35847;SDS011;22332;51.954;20.118;2024-02-28T10:15:10;47.60;;;33.90;;
35847;SDS011;22332;51.954;20.118;2024-02-28T10:18:16;52.70;;;36.50;;
35847;SDS011;22332;51.954;20.118;2024-02-28T10:21:22;57.50;;;39.50;;
35847;SDS011;22332;51.954;20.118;2024-02-28T10:24:29;59.20;;;41.70;;
35847;SDS011;22332;51.954;20.118;2024-02-28T10:27:36;52.10;;;36.80;;
35847;SDS011;22332;51.954;20.118;2024-02-28T10:30:42;67.10;;;48.10;;
35847;SDS011;22332;51.954;20.118;2024-02-28T10:33:47;59.90;;;41.00;;
35847;SDS011;22332;51.954;20.118;2024-02-28T10:36:53;55.30;;;38.40;;
35847;SDS011;22332;51.954;20.118;2024-02-28T10:40:00;51.10;;;37.00;;
35847;SDS011;22332;51.954;20.118;2024-02-28T10:43:06;56.00;;;37.90;;
35847;SDS011;22332;51.954;20.118;2024-02-28T10:46:14;51.00;;;34.90;;
35847;SDS011;22332;51.954;20.118;2024-02-28T10:49:19;56.20;;;38.30;;
35847;SDS011;22332;51.954;20.118;2024-02-28T10:52:25;55.50;;;38.00;;
35847;SDS011;22332;51.954;20.118;2024-02-28T10:55:33;58.60;;;42.30;;
35847;SDS011;22332;51.954;20.118;2024-02-28T10:58:46;58.60;;;41.80;;
35847;SDS011;22332;51.954;20.118;2024-02-28T11:05:00;48.50;;;32.30;;
35847;SDS011;22332;51.954;20.118;2024-02-28T11:08:07;53.20;;;36.20;;
35847;SDS011;22332;51.954;20.118;2024-02-28T11:11:14;94.10;;;61.60;;
35847;SDS011;22332;51.954;20.118;2024-02-28T11:14:20;63.80;;;44.20;;
35847;SDS011;22332;51.954;20.118;2024-02-28T11:17:28;52.80;;;35.30;;
35847;SDS011;22332;51.954;20.118;2024-02-28T11:20:34;78.60;;;55.40;;
35847;SDS011;22332;51.954;20.118;2024-02-28T11:23:40;52.20;;;35.80;;
35847;SDS011;22332;51.954;20.118;2024-02-28T11:26:49;41.50;;;31.20;;
35847;SDS011;22332;51.954;20.118;2024-02-28T11:29:55;44.00;;;29.50;;
35847;SDS011;22332;51.954;20.118;2024-02-28T11:33:01;42.90;;;30.80;;
35847;SDS011;22332;51.954;20.118;2024-02-28T11:36:08;45.10;;;30.00;;
35847;SDS011;22332;51.954;20.118;2024-02-28T11:39:15;43.80;;;29.20;;
35847;SDS011;22332;51.954;20.118;2024-02-28T11:42:22;42.40;;;27.00;;
35847;SDS011;22332;51.954;20.118;2024-02-28T11:45:28;40.40;;;27.60;;
35847;SDS011;22332;51.954;20.118;2024-02-28T11:48:34;46.20;;;29.90;;
35847;SDS011;22332;51.954;20.118;2024-02-28T11:51:41;44.80;;;31.60;;
35847;SDS011;22332;51.954;20.118;2024-02-28T11:54:46;47.20;;;32.10;;
35847;SDS011;22332;51.954;20.118;2024-02-28T11:57:52;46.90;;;30.10;;
35847;SDS011;22332;51.954;20.118;2024-02-28T12:00:58;48.70;;;32.40;;
35847;SDS011;22332;51.954;20.118;2024-02-28T12:04:04;51.60;;;33.40;;
35847;SDS011;22332;51.954;20.118;2024-02-28T12:07:10;49.40;;;31.80;;
35847;SDS011;22332;51.954;20.118;2024-02-28T12:10:16;55.70;;;35.20;;
35847;SDS011;22332;51.954;20.118;2024-02-28T12:13:22;49.00;;;30.40;;
35847;SDS011;22332;51.954;20.118;2024-02-28T12:16:28;53.60;;;32.80;;
35847;SDS011;22332;51.954;20.118;2024-02-28T12:19:35;47.10;;;30.40;;
35847;SDS011;22332;51.954;20.118;2024-02-28T12:22:42;59.90;;;37.00;;
35847;SDS011;22332;51.954;20.118;2024-02-28T12:25:48;63.60;;;38.20;;
35847;SDS011;22332;51.954;20.118;2024-02-28T12:28:54;55.40;;;30.70;;
35847;SDS011;22332;51.954;20.118;2024-02-28T12:31:59;48.20;;;29.70;;
35847;SDS011;22332;51.954;20.118;2024-02-28T12:35:07;40.30;;;23.90;;
35847;SDS011;22332;51.954;20.118;2024-02-28T12:38:14;47.20;;;29.20;;
35847;SDS011;22332;51.954;20.118;2024-02-28T12:41:27;36.90;;;21.70;;
35847;SDS011;22332;51.954;20.118;2024-02-28T12:44:33;28.90;;;19.40;;
35847;SDS011;22332;51.954;20.118;2024-02-28T12:47:40;31.30;;;20.30;;
35847;SDS011;22332;51.954;20.118;2024-02-28T12:50:46;25.90;;;16.40;;
35847;SDS011;22332;51.954;20.118;2024-02-28T12:53:52;22.90;;;15.00;;
35847;SDS011;22332;51.954;20.118;2024-02-28T12:56:59;21.90;;;14.40;;
35847;SDS011;22332;51.954;20.118;2024-02-28T13:00:08;24.00;;;14.60;;
35847;SDS011;22332;51.954;20.118;2024-02-28T13:03:14;21.80;;;14.70;;
35847;SDS011;22332;51.954;20.118;2024-02-28T13:06:20;20.30;;;13.90;;
35847;SDS011;22332;51.954;20.118;2024-02-28T13:09:26;24.30;;;14.30;;
35847;SDS011;22332;51.954;20.118;2024-02-28T13:12:31;23.80;;;15.00;;
35847;SDS011;22332;51.954;20.118;2024-02-28T13:15:37;17.80;;;12.20;;
35847;SDS011;22332;51.954;20.118;2024-02-28T13:18:44;20.60;;;14.20;;
35847;SDS011;22332;51.954;20.118;2024-02-28T13:21:50;17.50;;;12.00;;
35847;SDS011;22332;51.954;20.118;2024-02-28T13:24:56;18.80;;;12.60;;
35847;SDS011;22332;51.954;20.118;2024-02-28T13:28:01;17.70;;;12.00;;
35847;SDS011;22332;51.954;20.118;2024-02-28T13:31:07;17.30;;;11.70;;
35847;SDS011;22332;51.954;20.118;2024-02-28T13:34:13;21.80;;;14.70;;
35847;SDS011;22332;51.954;20.118;2024-02-28T13:37:18;16.40;;;11.50;;
35847;SDS011;22332;51.954;20.118;2024-02-28T13:40:24;20.00;;;13.70;;
35847;SDS011;22332;51.954;20.118;2024-02-28T13:43:33;24.70;;;17.10;;
35847;SDS011;22332;51.954;20.118;2024-02-28T13:46:41;37.70;;;26.30;;
35847;SDS011;22332;51.954;20.118;2024-02-28T13:49:50;24.40;;;16.50;;
35847;SDS011;22332;51.954;20.118;2024-02-28T13:52:55;30.40;;;21.60;;
35847;SDS011;22332;51.954;20.118;2024-02-28T13:56:01;38.90;;;23.20;;
35847;SDS011;22332;51.954;20.118;2024-02-28T13:59:08;49.90;;;30.60;;
35847;SDS011;22332;51.954;20.118;2024-02-28T14:02:14;28.40;;;20.40;;
35847;SDS011;22332;51.954;20.118;2024-02-28T14:05:19;25.50;;;18.80;;
35847;SDS011;22332;51.954;20.118;2024-02-28T14:08:25;21.80;;;16.10;;
35847;SDS011;22332;51.954;20.118;2024-02-28T14:11:31;21.80;;;14.60;;
35847;SDS011;22332;51.954;20.118;2024-02-28T14:14:36;19.00;;;13.70;;
35847;SDS011;22332;51.954;20.118;2024-02-28T14:17:42;22.10;;;15.40;;
35847;SDS011;22332;51.954;20.118;2024-02-28T14:20:48;19.00;;;14.70;;
35847;SDS011;22332;51.954;20.118;2024-02-28T14:23:54;19.50;;;13.90;;
35847;SDS011;22332;51.954;20.118;2024-02-28T14:27:03;20.70;;;14.60;;
35847;SDS011;22332;51.954;20.118;2024-02-28T14:30:09;17.80;;;12.30;;
35847;SDS011;22332;51.954;20.118;2024-02-28T14:33:16;19.70;;;14.60;;
35847;SDS011;22332;51.954;20.118;2024-02-28T14:36:22;18.80;;;13.90;;
35847;SDS011;22332;51.954;20.118;2024-02-28T14:39:28;22.40;;;16.10;;
35847;SDS011;22332;51.954;20.118;2024-02-28T14:42:33;23.20;;;16.10;;
35847;SDS011;22332;51.954;20.118;2024-02-28T14:45:39;24.20;;;16.20;;
35847;SDS011;22332;51.954;20.118;2024-02-28T14:48:45;28.40;;;19.10;;
35847;SDS011;22332;51.954;20.118;2024-02-28T14:51:54;28.10;;;19.50;;
35847;SDS011;22332;51.954;20.118;2024-02-28T14:55:00;24.40;;;15.50;;
35847;SDS011;22332;51.954;20.118;2024-02-28T14:58:06;36.30;;;22.70;;
35847;SDS011;22332;51.954;20.118;2024-02-28T15:01:12;28.90;;;19.60;;
35847;SDS011;22332;51.954;20.118;2024-02-28T15:04:18;22.00;;;14.00;;
35847;SDS011;22332;51.954;20.118;2024-02-28T15:07:24;25.10;;;17.10;;
35847;SDS011;22332;51.954;20.118;2024-02-28T15:10:29;22.70;;;16.20;;
35847;SDS011;22332;51.954;20.118;2024-02-28T15:13:36;32.50;;;20.60;;
35847;SDS011;22332;51.954;20.118;2024-02-28T15:16:41;23.40;;;16.40;;
35847;SDS011;22332;51.954;20.118;2024-02-28T15:19:47;29.30;;;18.80;;
35847;SDS011;22332;51.954;20.118;2024-02-28T15:22:53;45.10;;;31.90;;
35847;SDS011;22332;51.954;20.118;2024-02-28T15:25:59;22.10;;;14.80;;
35847;SDS011;22332;51.954;20.118;2024-02-28T15:29:05;22.60;;;15.70;;
35847;SDS011;22332;51.954;20.118;2024-02-28T15:32:10;20.40;;;13.40;;
35847;SDS011;22332;51.954;20.118;2024-02-28T15:35:16;40.30;;;25.30;;
35847;SDS011;22332;51.954;20.118;2024-02-28T15:38:24;26.70;;;19.90;;
35847;SDS011;22332;51.954;20.118;2024-02-28T15:41:30;34.60;;;24.20;;
35847;SDS011;22332;51.954;20.118;2024-02-28T15:44:36;36.20;;;24.80;;
35847;SDS011;22332;51.954;20.118;2024-02-28T15:47:50;28.60;;;17.80;;
35847;SDS011;22332;51.954;20.118;2024-02-28T15:51:03;23.50;;;15.60;;
35847;SDS011;22332;51.954;20.118;2024-02-28T15:54:09;37.60;;;24.80;;
35847;SDS011;22332;51.954;20.118;2024-02-28T15:57:15;27.90;;;19.60;;
35847;SDS011;22332;51.954;20.118;2024-02-28T16:00:20;28.60;;;20.30;;
35847;SDS011;22332;51.954;20.118;2024-02-28T16:03:26;28.10;;;19.60;;
35847;SDS011;22332;51.954;20.118;2024-02-28T16:06:32;31.10;;;18.60;;
35847;SDS011;22332;51.954;20.118;2024-02-28T16:09:37;35.90;;;22.80;;
35847;SDS011;22332;51.954;20.118;2024-02-28T16:12:44;25.10;;;17.30;;
35847;SDS011;22332;51.954;20.118;2024-02-28T16:15:49;22.20;;;16.40;;
35847;SDS011;22332;51.954;20.118;2024-02-28T16:18:55;22.20;;;15.10;;
35847;SDS011;22332;51.954;20.118;2024-02-28T16:22:00;22.10;;;14.10;;
35847;SDS011;22332;51.954;20.118;2024-02-28T16:25:07;20.00;;;14.10;;
35847;SDS011;22332;51.954;20.118;2024-02-28T16:28:13;23.80;;;16.40;;
35847;SDS011;22332;51.954;20.118;2024-02-28T16:31:18;25.60;;;16.60;;
35847;SDS011;22332;51.954;20.118;2024-02-28T16:34:26;28.60;;;19.60;;
35847;SDS011;22332;51.954;20.118;2024-02-28T16:37:31;30.50;;;19.90;;
35847;SDS011;22332;51.954;20.118;2024-02-28T16:40:37;50.20;;;28.60;;
35847;SDS011;22332;51.954;20.118;2024-02-28T16:43:43;52.20;;;33.70;;
35847;SDS011;22332;51.954;20.118;2024-02-28T16:46:48;41.60;;;28.40;;
35847;SDS011;22332;51.954;20.118;2024-02-28T16:49:54;38.80;;;28.50;;
35847;SDS011;22332;51.954;20.118;2024-02-28T16:53:00;30.90;;;24.30;;
35847;SDS011;22332;51.954;20.118;2024-02-28T16:56:05;34.90;;;24.50;;
35847;SDS011;22332;51.954;20.118;2024-02-28T16:59:11;31.20;;;23.80;;
35847;SDS011;22332;51.954;20.118;2024-02-28T17:02:16;33.60;;;25.30;;
35847;SDS011;22332;51.954;20.118;2024-02-28T17:05:22;33.80;;;25.20;;
35847;SDS011;22332;51.954;20.118;2024-02-28T17:08:28;30.30;;;23.40;;
35847;SDS011;22332;51.954;20.118;2024-02-28T17:11:35;23.70;;;17.80;;
35847;SDS011;22332;51.954;20.118;2024-02-28T17:14:41;21.90;;;15.90;;
35847;SDS011;22332;51.954;20.118;2024-02-28T17:17:47;25.40;;;18.50;;
35847;SDS011;22332;51.954;20.118;2024-02-28T17:20:52;25.80;;;18.50;;
35847;SDS011;22332;51.954;20.118;2024-02-28T17:23:58;26.10;;;19.60;;
35847;SDS011;22332;51.954;20.118;2024-02-28T17:27:04;22.50;;;15.90;;
35847;SDS011;22332;51.954;20.118;2024-02-28T17:30:10;23.30;;;16.50;;
35847;SDS011;22332;51.954;20.118;2024-02-28T17:33:16;29.40;;;20.70;;
35847;SDS011;22332;51.954;20.118;2024-02-28T17:36:23;36.90;;;26.70;;
35847;SDS011;22332;51.954;20.118;2024-02-28T17:39:29;27.30;;;21.00;;
35847;SDS011;22332;51.954;20.118;2024-02-28T17:42:35;27.90;;;20.30;;
35847;SDS011;22332;51.954;20.118;2024-02-28T17:45:40;27.70;;;18.50;;
35847;SDS011;22332;51.954;20.118;2024-02-28T17:48:46;26.30;;;17.50;;
35847;SDS011;22332;51.954;20.118;2024-02-28T17:51:53;19.40;;;14.80;;
35847;SDS011;22332;51.954;20.118;2024-02-28T17:54:58;25.90;;;18.60;;
35847;SDS011;22332;51.954;20.118;2024-02-28T17:58:04;31.90;;;21.70;;
35847;SDS011;22332;51.954;20.118;2024-02-28T18:01:10;31.20;;;21.90;;